createdAt,value
2018-12-16T00:00:05.338Z,88.07
2018-12-16T00:01:05.332Z,88.17
2018-12-16T00:02:05.369Z,88.39
2018-12-16T00:03:05.310Z,88.39
2018-12-16T00:04:05.298Z,88.28
2018-12-16T00:05:05.299Z,88.49
2018-12-16T00:06:05.277Z,87.76
2018-12-16T00:07:05.275Z,87.76
2018-12-16T00:08:05.266Z,87.65
2018-12-16T00:09:05.256Z,88.17
2018-12-16T00:10:05.240Z,88.07
2018-12-16T00:11:05.231Z,87.96
2018-12-16T00:12:05.213Z,87.65
2018-12-16T00:13:05.218Z,87.13
2018-12-16T00:14:05.198Z,87.34
2018-12-16T00:15:05.183Z,87.45
2018-12-16T00:16:05.184Z,87.34
2018-12-16T00:17:05.154Z,89.64
2018-12-16T00:18:05.158Z,88.59
2018-12-16T00:19:05.147Z,88.34
2018-12-16T00:20:05.252Z,88.03
2018-12-16T00:21:05.130Z,88.13
2018-12-16T00:22:05.109Z,88.45
2018-12-16T00:23:05.100Z,87.09
2018-12-16T00:24:05.092Z,86.77
2018-12-16T00:25:05.074Z,87.19
2018-12-16T00:26:05.094Z,87.09
2018-12-16T00:27:05.049Z,86.57
2018-12-16T00:28:05.810Z,86.36
2018-12-16T00:29:05.316Z,86.82
2018-12-16T00:30:05.031Z,87.19
2018-12-16T00:31:05.015Z,87.30
2018-12-16T00:32:05.006Z,87.09
2018-12-16T00:33:05.629Z,86.92
2018-12-16T00:34:04.978Z,87.19
2018-12-16T00:35:04.972Z,86.88
2018-12-16T00:36:04.956Z,87.13
2018-12-16T00:37:04.977Z,87.30
2018-12-16T00:38:04.965Z,86.36
2018-12-16T00:39:04.925Z,86.46
2018-12-16T00:40:04.910Z,86.71
2018-12-16T00:41:04.895Z,86.67
2018-12-16T00:42:04.891Z,86.36
2018-12-16T00:43:04.894Z,86.46
2018-12-16T00:44:04.881Z,86.46
2018-12-16T00:45:04.867Z,86.67
2018-12-16T00:46:04.857Z,87.19
2018-12-16T00:47:04.831Z,85.83
2018-12-16T00:48:04.850Z,85.94
2018-12-16T00:49:04.818Z,86.15
2018-12-16T00:50:04.813Z,85.52
2018-12-16T00:51:04.802Z,85.00
2018-12-16T00:52:04.784Z,85.21
2018-12-16T00:53:04.781Z,85.52
2018-12-16T00:54:04.817Z,85.52
2018-12-16T00:55:04.769Z,85.35
2018-12-16T00:56:04.733Z,85.52
2018-12-16T00:57:04.732Z,85.21
2018-12-16T00:58:04.741Z,84.69
2018-12-16T00:59:04.705Z,84.17
2018-12-16T01:00:04.721Z,84.20
2018-12-16T01:01:04.678Z,84.10
2018-12-16T01:02:04.679Z,84.10
2018-12-16T01:03:04.673Z,83.23
2018-12-16T01:04:04.655Z,83.37
2018-12-16T01:05:04.671Z,84.00
2018-12-16T01:06:04.626Z,83.12
2018-12-16T01:07:04.628Z,83.68
2018-12-16T01:08:04.612Z,83.78
2018-12-16T01:09:04.602Z,83.78
2018-12-16T01:10:04.596Z,84.52
2018-12-16T01:11:04.583Z,84.31
2018-12-16T01:12:04.576Z,84.41
2018-12-16T01:13:04.568Z,83.89
2018-12-16T01:14:04.545Z,84.00
2018-12-16T01:15:04.547Z,82.95
2018-12-16T01:16:04.547Z,84.10
2018-12-16T01:17:04.510Z,83.37
2018-12-16T01:18:05.317Z,83.62
2018-12-16T01:19:04.495Z,84.20
2018-12-16T01:20:04.489Z,83.68
2018-12-16T01:21:04.570Z,84.20
2018-12-16T01:22:04.459Z,83.68
2018-12-16T01:23:04.459Z,84.00
2018-12-16T01:24:04.443Z,82.95
2018-12-16T01:25:04.420Z,82.74
2018-12-16T01:26:04.415Z,83.51
2018-12-16T01:27:04.449Z,82.74
2018-12-16T01:28:04.393Z,83.20
2018-12-16T01:29:04.384Z,83.16
2018-12-16T01:30:04.371Z,83.26
2018-12-16T01:31:04.366Z,83.30
2018-12-16T01:32:04.353Z,83.06
2018-12-16T01:33:04.607Z,82.64
2018-12-16T01:34:04.326Z,82.36
2018-12-16T01:35:04.313Z,82.74
2018-12-16T01:36:04.320Z,82.89
2018-12-16T01:37:04.299Z,83.06
2018-12-16T01:38:04.286Z,83.26
2018-12-16T01:39:04.288Z,82.95
2018-12-16T01:40:04.271Z,83.06
2018-12-16T01:41:04.272Z,83.51
2018-12-16T01:42:04.247Z,82.64
2018-12-16T01:43:04.235Z,82.64
2018-12-16T01:44:04.221Z,82.12
2018-12-16T01:45:04.215Z,82.15
2018-12-16T01:46:04.210Z,82.64
2018-12-16T01:47:04.200Z,82.57
2018-12-16T01:48:04.181Z,82.01
2018-12-16T01:49:04.172Z,82.64
2018-12-16T01:50:04.165Z,81.84
2018-12-16T01:51:04.170Z,81.42
2018-12-16T01:52:04.129Z,81.49
2018-12-16T01:53:04.132Z,82.26
2018-12-16T01:54:04.113Z,81.28
2018-12-16T01:55:04.107Z,81.52
2018-12-16T01:56:04.128Z,81.84
2018-12-16T01:57:04.089Z,82.05
2018-12-16T01:58:04.069Z,81.73
2018-12-16T01:59:04.061Z,81.32
2018-12-16T02:00:04.044Z,81.95
2018-12-16T02:01:04.033Z,80.90
2018-12-16T02:02:04.052Z,81.11
2018-12-16T02:03:04.019Z,81.21
2018-12-16T02:04:04.022Z,80.79
2018-12-16T02:05:04.810Z,80.90
2018-12-16T02:06:03.985Z,80.58
2018-12-16T02:07:03.995Z,80.69
2018-12-16T02:08:04.011Z,81.00
2018-12-16T02:09:03.961Z,80.90
2018-12-16T02:10:03.945Z,80.48
2018-12-16T02:11:03.940Z,80.27
2018-12-16T02:12:03.941Z,80.27
2018-12-16T02:13:03.908Z,80.38
2018-12-16T02:14:03.895Z,80.58
2018-12-16T02:15:03.896Z,80.58
2018-12-16T02:16:03.883Z,80.44
2018-12-16T02:17:03.878Z,80.38
2018-12-16T02:18:03.886Z,79.96
2018-12-16T02:19:03.843Z,80.69
2018-12-16T02:20:03.845Z,79.85
2018-12-16T02:21:03.827Z,79.85
2018-12-16T02:22:03.809Z,80.06
2018-12-16T02:23:03.813Z,79.54
2018-12-16T02:24:03.820Z,79.02
2018-12-16T02:25:03.793Z,79.33
2018-12-16T02:26:03.768Z,79.64
2018-12-16T02:27:03.768Z,79.33
2018-12-16T02:28:03.755Z,79.44
2018-12-16T02:29:03.782Z,78.81
2018-12-16T02:30:03.733Z,77.87
2018-12-16T02:31:03.723Z,78.49
2018-12-16T02:32:03.712Z,78.39
2018-12-16T02:33:03.711Z,78.39
2018-12-16T02:34:03.692Z,78.28
2018-12-16T02:35:03.719Z,78.08
2018-12-16T02:36:03.671Z,77.83
2018-12-16T02:37:03.664Z,77.97
2018-12-16T02:38:03.642Z,77.97
2018-12-16T02:39:03.641Z,78.18
2018-12-16T02:40:03.616Z,76.20
2018-12-16T02:41:03.661Z,76.20
2018-12-16T02:42:03.598Z,76.51
2018-12-16T02:43:03.630Z,76.30
2018-12-16T02:44:03.573Z,76.30
2018-12-16T02:45:03.716Z,76.09
2018-12-16T02:46:03.573Z,75.36
2018-12-16T02:47:03.549Z,75.46
2018-12-16T02:48:03.537Z,75.46
2018-12-16T02:49:03.526Z,75.46
2018-12-16T02:50:03.523Z,74.94
2018-12-16T02:51:03.512Z,74.73
2018-12-16T02:52:03.743Z,75.04
2018-12-16T02:53:04.723Z,75.46
2018-12-16T02:54:03.482Z,75.36
2018-12-16T02:55:03.459Z,73.90
2018-12-16T02:56:03.498Z,73.58
2018-12-16T02:57:03.513Z,73.69
2018-12-16T02:58:03.449Z,73.27
2018-12-16T02:59:03.427Z,72.02
2018-12-16T03:00:03.408Z,72.53
2018-12-16T03:01:03.392Z,72.02
2018-12-16T03:02:03.432Z,71.49
2018-12-16T03:03:03.393Z,72.33
2018-12-16T03:04:03.363Z,72.22
2018-12-16T03:05:03.361Z,72.12
2018-12-16T03:06:03.340Z,71.70
2018-12-16T03:07:03.329Z,71.70
2018-12-16T03:08:03.336Z,69.29
2018-12-16T03:09:03.326Z,68.88
2018-12-16T03:10:03.299Z,67.83
2018-12-16T03:11:03.300Z,66.78
2018-12-16T03:12:03.297Z,66.37
2018-12-16T03:13:03.279Z,66.06
2018-12-16T03:14:03.264Z,65.33
2018-12-16T03:15:03.255Z,64.87
2018-12-16T03:16:03.230Z,65.30
2018-12-16T03:17:03.223Z,64.77
2018-12-16T03:18:03.219Z,65.09
2018-12-16T03:19:03.208Z,65.19
2018-12-16T03:20:03.211Z,65.50
2018-12-16T03:21:03.185Z,65.33
2018-12-16T03:22:03.376Z,65.19
2018-12-16T03:23:03.155Z,65.53
2018-12-16T03:24:03.155Z,65.40
2018-12-16T03:25:03.143Z,65.19
2018-12-16T03:26:03.129Z,65.61
2018-12-16T03:27:03.123Z,63.10
2018-12-16T03:28:03.121Z,64.04
2018-12-16T03:29:03.095Z,64.77
2018-12-16T03:30:03.090Z,63.31
2018-12-16T03:31:03.084Z,62.79
2018-12-16T03:32:03.062Z,63.62
2018-12-16T03:33:03.067Z,60.83
2018-12-16T03:34:03.050Z,61.98
2018-12-16T03:35:03.036Z,61.85
2018-12-16T03:36:03.053Z,61.46
2018-12-16T03:37:03.017Z,61.66
2018-12-16T03:38:03.015Z,61.64
2018-12-16T03:39:02.985Z,61.98
2018-12-16T03:40:02.974Z,61.56
2018-12-16T03:41:02.971Z,61.74
2018-12-16T03:42:03.346Z,61.56
2018-12-16T03:43:03.828Z,61.22
2018-12-16T03:44:03.829Z,60.59
2018-12-16T03:45:02.946Z,60.28
2018-12-16T03:46:02.976Z,60.70
2018-12-16T03:47:02.980Z,60.62
2018-12-16T03:48:02.912Z,60.28
2018-12-16T03:49:02.883Z,61.11
2018-12-16T03:50:02.875Z,60.72
2018-12-16T03:51:02.858Z,61.01
2018-12-16T03:52:02.861Z,60.91
2018-12-16T03:53:02.860Z,60.80
2018-12-16T03:54:02.838Z,61.54
2018-12-16T03:55:02.828Z,62.71
2018-12-16T03:56:02.818Z,62.99
2018-12-16T03:57:02.853Z,62.89
2018-12-16T03:58:02.792Z,63.83
2018-12-16T03:59:02.784Z,64.56
2018-12-16T04:00:02.766Z,64.98
2018-12-16T04:01:02.750Z,65.40
2018-12-16T04:02:02.752Z,65.53
2018-12-16T04:03:02.752Z,66.27
2018-12-16T04:04:02.732Z,67.31
2018-12-16T04:05:02.719Z,67.41
2018-12-16T04:06:02.710Z,67.73
2018-12-16T04:07:02.686Z,68.67
2018-12-16T04:08:02.725Z,68.88
2018-12-16T04:09:02.678Z,68.67
2018-12-16T04:10:02.662Z,69.19
2018-12-16T04:11:02.654Z,69.71
2018-12-16T04:12:02.655Z,70.65
2018-12-16T04:13:02.632Z,70.65
2018-12-16T04:14:02.636Z,70.45
2018-12-16T04:15:02.604Z,71.84
2018-12-16T04:16:02.599Z,71.62
2018-12-16T04:17:02.589Z,72.15
2018-12-16T04:18:02.624Z,72.67
2018-12-16T04:19:02.572Z,73.19
2018-12-16T04:20:02.546Z,73.09
2018-12-16T04:21:02.555Z,73.82
2018-12-16T04:22:02.529Z,73.61
2018-12-16T04:23:02.519Z,74.35
2018-12-16T04:24:02.529Z,74.35
2018-12-16T04:25:02.494Z,74.87
2018-12-16T04:26:02.485Z,74.87
2018-12-16T04:27:02.479Z,75.08
2018-12-16T04:28:02.462Z,75.81
2018-12-16T04:29:02.479Z,76.12
2018-12-16T04:30:02.438Z,76.65
2018-12-16T04:31:02.426Z,76.44
2018-12-16T04:32:02.458Z,76.37
2018-12-16T04:33:02.416Z,76.16
2018-12-16T04:34:02.403Z,76.37
2018-12-16T04:35:03.367Z,76.57
2018-12-16T04:36:02.473Z,76.79
2018-12-16T04:37:02.363Z,76.79
2018-12-16T04:38:02.402Z,76.57
2018-12-16T04:39:02.340Z,76.54
2018-12-16T04:40:02.330Z,76.86
2018-12-16T04:41:02.331Z,77.52
2018-12-16T04:42:02.325Z,77.52
2018-12-16T04:43:02.310Z,76.68
2018-12-16T04:44:02.307Z,75.84
2018-12-16T04:45:02.293Z,74.69
2018-12-16T04:46:02.276Z,74.80
2018-12-16T04:47:02.302Z,75.22
2018-12-16T04:48:02.257Z,75.32
2018-12-16T04:49:02.250Z,75.11
2018-12-16T04:50:02.249Z,75.53
2018-12-16T04:51:02.233Z,75.95
2018-12-16T04:52:02.204Z,76.37
2018-12-16T04:53:02.208Z,76.37
2018-12-16T04:54:02.189Z,76.47
2018-12-16T04:55:02.176Z,76.68
2018-12-16T04:56:02.176Z,76.37
2018-12-16T04:57:02.167Z,76.86
2018-12-16T04:58:02.187Z,76.54
2018-12-16T04:59:02.172Z,76.44
2018-12-16T05:00:02.117Z,76.75
2018-12-16T05:01:02.116Z,76.02
2018-12-16T05:02:02.112Z,76.02
2018-12-16T05:03:02.095Z,75.92
2018-12-16T05:04:02.086Z,75.92
2018-12-16T05:05:02.067Z,75.49
2018-12-16T05:06:02.063Z,75.18
2018-12-16T05:07:02.058Z,75.71
2018-12-16T05:08:02.046Z,75.49
2018-12-16T05:09:02.064Z,76.23
2018-12-16T05:10:02.028Z,76.26
2018-12-16T05:11:02.004Z,76.12
2018-12-16T05:12:01.997Z,76.37
2018-12-16T05:13:01.983Z,76.86
2018-12-16T05:14:01.983Z,75.08
2018-12-16T05:15:01.988Z,75.29
2018-12-16T05:16:01.952Z,75.39
2018-12-16T05:17:01.947Z,75.53
2018-12-16T05:18:01.930Z,75.74
2018-12-16T05:19:01.943Z,76.06
2018-12-16T05:20:01.910Z,76.89
2018-12-16T05:21:02.903Z,76.26
2018-12-16T05:22:01.903Z,76.06
2018-12-16T05:23:01.888Z,76.16
2018-12-16T05:24:01.867Z,75.43
2018-12-16T05:25:01.880Z,75.32
2018-12-16T05:26:01.892Z,76.16
2018-12-16T05:27:01.831Z,75.95
2018-12-16T05:28:01.836Z,75.95
2018-12-16T05:29:01.908Z,75.53
2018-12-16T05:30:01.798Z,75.43
2018-12-16T05:31:01.787Z,75.32
2018-12-16T05:32:01.788Z,75.63
2018-12-16T05:33:01.768Z,75.43
2018-12-16T05:34:01.771Z,75.63
2018-12-16T05:35:01.790Z,75.84
2018-12-16T05:36:01.755Z,76.02
2018-12-16T05:37:01.734Z,75.84
2018-12-16T05:38:01.732Z,75.60
2018-12-16T05:39:01.701Z,75.95
2018-12-16T05:40:01.698Z,76.06
2018-12-16T05:41:01.725Z,75.53
2018-12-16T05:42:01.681Z,75.63
2018-12-16T05:43:01.670Z,75.11
2018-12-16T05:44:01.654Z,75.01
2018-12-16T05:45:01.694Z,75.11
2018-12-16T05:46:01.633Z,74.98
2018-12-16T05:47:01.637Z,75.81
2018-12-16T05:48:01.606Z,75.92
2018-12-16T05:49:01.608Z,76.65
2018-12-16T05:50:01.596Z,76.33
2018-12-16T05:51:01.603Z,76.86
2018-12-16T05:52:01.609Z,76.02
2018-12-16T05:53:01.558Z,75.60
2018-12-16T05:54:01.544Z,75.60
2018-12-16T05:55:01.546Z,75.18
2018-12-16T05:56:01.516Z,75.92
2018-12-16T05:57:01.506Z,75.60
2018-12-16T05:58:01.521Z,75.18
2018-12-16T05:59:01.494Z,75.49
2018-12-16T06:00:01.490Z,75.18
2018-12-16T06:01:01.467Z,75.71
2018-12-16T06:02:01.459Z,75.81
2018-12-16T06:03:01.451Z,76.44
2018-12-16T06:04:01.436Z,75.39
2018-12-16T06:05:01.434Z,75.39
2018-12-16T06:06:01.409Z,75.49
2018-12-16T06:07:01.450Z,75.29
2018-12-16T06:08:01.408Z,75.71
2018-12-16T06:09:02.393Z,75.39
2018-12-16T06:10:01.376Z,75.18
2018-12-16T06:11:01.366Z,75.08
2018-12-16T06:12:01.364Z,75.08
2018-12-16T06:13:01.887Z,75.18
2018-12-16T06:14:01.340Z,75.08
2018-12-16T06:15:01.314Z,74.98
2018-12-16T06:16:01.320Z,75.08
2018-12-16T06:17:01.299Z,75.29
2018-12-16T06:18:01.351Z,75.39
2018-12-16T06:19:01.279Z,75.08
2018-12-16T06:20:01.271Z,75.29
2018-12-16T06:21:01.260Z,75.49
2018-12-16T06:22:01.251Z,75.49
2018-12-16T06:23:01.243Z,75.29
2018-12-16T06:24:01.347Z,75.29
2018-12-16T06:25:01.252Z,75.49
2018-12-16T06:26:01.193Z,75.49
2018-12-16T06:27:01.191Z,75.60
2018-12-16T06:28:01.184Z,75.81
2018-12-16T06:29:01.179Z,75.81
2018-12-16T06:30:01.186Z,76.33
2018-12-16T06:31:01.160Z,76.47
2018-12-16T06:32:01.133Z,76.57
2018-12-16T06:33:01.128Z,76.47
2018-12-16T06:34:01.152Z,76.86
2018-12-16T06:35:01.104Z,76.44
2018-12-16T06:36:01.098Z,76.65
2018-12-16T06:37:01.082Z,76.54
2018-12-16T06:38:01.070Z,76.65
2018-12-16T06:39:01.064Z,76.65
2018-12-16T06:40:01.053Z,76.54
2018-12-16T06:41:01.036Z,76.44
2018-12-16T06:42:01.037Z,76.96
2018-12-16T06:43:01.027Z,76.86
2018-12-16T06:44:01.009Z,77.38
2018-12-16T06:45:01.013Z,76.33
2018-12-16T06:46:00.981Z,76.54
2018-12-16T06:47:00.978Z,76.54
2018-12-16T06:48:00.967Z,76.33
2018-12-16T06:49:00.951Z,76.65
2018-12-16T06:50:00.985Z,76.33
2018-12-16T06:51:00.936Z,76.44
2018-12-16T06:52:00.929Z,76.33
2018-12-16T06:53:00.937Z,76.75
2018-12-16T06:54:02.538Z,76.65
2018-12-16T06:55:00.883Z,76.23
2018-12-16T06:56:06.522Z,75.71
2018-12-16T06:57:01.870Z,76.68
2018-12-16T06:58:00.869Z,76.37
2018-12-16T06:59:01.342Z,76.37
2018-12-16T07:00:00.835Z,76.54
2018-12-16T07:01:00.944Z,76.47
2018-12-16T07:02:00.807Z,76.37
2018-12-16T07:03:00.817Z,76.57
2018-12-16T07:04:00.795Z,76.79
2018-12-16T07:05:00.784Z,77.42
2018-12-16T07:06:00.774Z,77.42
2018-12-16T07:07:00.812Z,76.47
2018-12-16T07:08:00.749Z,75.74
2018-12-16T07:09:00.747Z,75.84
2018-12-16T07:10:00.732Z,75.53
2018-12-16T07:11:00.721Z,74.69
2018-12-16T07:12:00.715Z,74.90
2018-12-16T07:13:00.712Z,75.11
2018-12-16T07:14:00.713Z,75.22
2018-12-16T07:15:00.668Z,73.65
2018-12-16T07:16:00.666Z,72.92
2018-12-16T07:17:00.721Z,71.97
2018-12-16T07:18:00.656Z,72.92
2018-12-16T07:19:00.635Z,72.71
2018-12-16T07:20:00.623Z,71.56
2018-12-16T07:21:00.601Z,70.40
2018-12-16T07:22:00.595Z,71.24
2018-12-16T07:23:00.600Z,70.93
2018-12-16T07:24:00.568Z,71.77
2018-12-16T07:25:00.634Z,71.80
2018-12-16T07:26:00.561Z,71.87
2018-12-16T07:27:00.544Z,71.56
2018-12-16T07:28:00.551Z,71.77
2018-12-16T07:29:00.546Z,71.87
2018-12-16T07:30:00.505Z,72.29
2018-12-16T07:31:00.532Z,71.97
2018-12-16T07:32:00.493Z,72.08
2018-12-16T07:33:00.487Z,71.97
2018-12-16T07:34:00.510Z,72.29
2018-12-16T07:35:00.464Z,72.08
2018-12-16T07:36:00.441Z,72.08
2018-12-16T07:37:00.428Z,72.36
2018-12-16T07:38:00.437Z,71.66
2018-12-16T07:39:00.442Z,71.66
2018-12-16T07:40:00.448Z,72.08
2018-12-16T07:41:00.426Z,72.29
2018-12-16T07:42:00.379Z,72.08
2018-12-16T07:43:00.381Z,72.05
2018-12-16T07:44:00.353Z,72.36
2018-12-16T07:45:00.392Z,71.84
2018-12-16T07:46:00.918Z,71.87
2018-12-16T07:47:00.357Z,71.66
2018-12-16T07:48:00.319Z,71.77
2018-12-16T07:49:00.313Z,72.08
2018-12-16T07:50:00.373Z,70.40
2018-12-16T07:51:00.309Z,68.84
2018-12-16T07:52:00.275Z,68.52
2018-12-16T07:53:00.268Z,68.21
2018-12-16T07:54:00.251Z,69.36
2018-12-16T07:55:00.275Z,68.07
2018-12-16T07:56:00.225Z,68.28
2018-12-16T07:57:00.254Z,68.07
2018-12-16T07:58:00.233Z,68.21
2018-12-16T07:59:00.216Z,67.90
2018-12-16T08:00:00.190Z,68.07
2018-12-16T08:01:00.178Z,67.58
2018-12-16T08:02:00.181Z,67.68
2018-12-16T08:03:00.155Z,67.24
2018-12-16T08:04:00.147Z,66.71
2018-12-16T08:05:00.160Z,66.01
2018-12-16T08:06:00.147Z,66.43
2018-12-16T08:07:00.128Z,66.22
2018-12-16T08:08:00.105Z,66.22
2018-12-16T08:09:00.094Z,66.33
2018-12-16T08:10:00.073Z,66.22
2018-12-16T08:11:00.073Z,66.01
2018-12-16T08:12:00.308Z,66.22
2018-12-16T08:13:00.166Z,66.40
2018-12-16T08:14:00.035Z,67.16
2018-12-16T08:15:00.029Z,66.96
2018-12-16T08:16:00.024Z,66.82
2018-12-16T08:17:00.004Z,67.06
2018-12-16T08:18:00.014Z,67.16
2018-12-16T08:19:06.806Z,66.74
2018-12-16T08:20:00.984Z,67.06
2018-12-16T08:20:59.963Z,67.27
2018-12-16T08:21:59.957Z,66.96
2018-12-16T08:22:59.957Z,67.34
2018-12-16T08:23:59.954Z,67.34
2018-12-16T08:24:59.929Z,66.30
2018-12-16T08:25:59.904Z,66.50
2018-12-16T08:26:59.902Z,67.65
2018-12-16T08:27:59.888Z,67.55
2018-12-16T08:28:59.878Z,66.93
2018-12-16T08:29:59.877Z,66.64
2018-12-16T08:30:59.862Z,67.37
2018-12-16T08:31:59.841Z,67.24
2018-12-16T08:32:59.832Z,66.61
2018-12-16T08:33:59.826Z,66.40
2018-12-16T08:34:59.856Z,66.30
2018-12-16T08:36:00.370Z,65.67
2018-12-16T08:36:59.881Z,65.46
2018-12-16T08:37:59.772Z,66.30
2018-12-16T08:38:59.772Z,65.46
2018-12-16T08:40:00.115Z,65.98
2018-12-16T08:40:59.932Z,66.08
2018-12-16T08:41:59.786Z,65.88
2018-12-16T08:42:59.824Z,65.56
2018-12-16T08:43:59.794Z,66.16
2018-12-16T08:45:00.030Z,66.40
2018-12-16T08:45:59.754Z,66.61
2018-12-16T08:46:59.779Z,66.82
2018-12-16T08:47:59.704Z,66.82
2018-12-16T08:48:59.752Z,66.85
2018-12-16T08:49:59.750Z,66.61
2018-12-16T08:50:59.780Z,66.85
2018-12-16T08:51:59.723Z,66.93
2018-12-16T08:52:59.704Z,67.34
2018-12-16T08:53:59.812Z,66.82
2018-12-16T08:54:59.915Z,65.98
2018-12-16T08:55:59.683Z,64.83
2018-12-16T08:56:59.652Z,65.38
2018-12-16T08:57:59.648Z,65.70
2018-12-16T08:58:59.626Z,65.49
2018-12-16T08:59:59.635Z,65.80
2018-12-16T09:00:59.549Z,65.80
2018-12-16T09:01:59.653Z,66.11
2018-12-16T09:02:59.522Z,66.01
2018-12-16T09:03:59.610Z,65.25
2018-12-16T09:04:59.482Z,65.80
2018-12-16T09:05:59.493Z,65.46
2018-12-16T09:06:59.474Z,66.30
2018-12-16T09:07:59.448Z,65.98
2018-12-16T09:08:59.449Z,65.56
2018-12-16T09:09:59.467Z,65.98
2018-12-16T09:10:59.430Z,66.50
2018-12-16T09:11:59.405Z,66.08
2018-12-16T09:12:59.397Z,66.08
2018-12-16T09:13:59.398Z,65.67
2018-12-16T09:14:59.380Z,65.88
2018-12-16T09:15:59.387Z,64.73
2018-12-16T09:16:59.363Z,64.31
2018-12-16T09:17:59.346Z,64.62
2018-12-16T09:18:59.347Z,64.76
2018-12-16T09:19:59.331Z,64.44
2018-12-16T09:20:59.319Z,65.28
2018-12-16T09:21:59.303Z,66.01
2018-12-16T09:22:59.298Z,65.98
2018-12-16T09:23:59.313Z,65.46
2018-12-16T09:24:59.534Z,65.25
2018-12-16T09:25:59.261Z,65.56
2018-12-16T09:26:59.244Z,65.36
2018-12-16T09:27:59.307Z,64.65
2018-12-16T09:28:59.238Z,65.38
2018-12-16T09:29:59.217Z,65.59
2018-12-16T09:30:59.224Z,65.80
2018-12-16T09:31:59.196Z,65.38
2018-12-16T09:32:59.201Z,66.01
2018-12-16T09:33:59.173Z,65.49
2018-12-16T09:34:59.162Z,65.91
2018-12-16T09:35:59.202Z,65.91
2018-12-16T09:36:59.145Z,65.88
2018-12-16T09:37:59.138Z,65.88
2018-12-16T09:38:59.131Z,65.36
2018-12-16T09:39:59.103Z,65.77
2018-12-16T09:40:59.095Z,65.91
2018-12-16T09:41:59.102Z,65.70
2018-12-16T09:42:59.094Z,64.76
2018-12-16T09:43:59.059Z,64.44
2018-12-16T09:44:59.056Z,65.17
2018-12-16T09:45:59.044Z,64.76
2018-12-16T09:46:59.048Z,65.38
2018-12-16T09:47:59.032Z,66.11
2018-12-16T09:48:59.031Z,65.80
2018-12-16T09:49:59.013Z,65.91
2018-12-16T09:50:58.987Z,65.80
2018-12-16T09:51:59.001Z,65.38
2018-12-16T09:52:58.983Z,66.01
2018-12-16T09:53:58.971Z,65.49
2018-12-16T09:54:58.959Z,65.91
2018-12-16T09:55:58.932Z,66.43
2018-12-16T09:56:58.925Z,65.70
2018-12-16T09:57:58.958Z,65.49
2018-12-16T09:58:58.914Z,66.08
2018-12-16T09:59:58.887Z,66.43
2018-12-16T10:00:58.877Z,66.96
2018-12-16T10:01:58.877Z,66.33
2018-12-16T10:02:58.859Z,65.28
2018-12-16T10:03:58.865Z,65.31
2018-12-16T10:04:58.858Z,64.47
2018-12-16T10:05:58.823Z,65.17
2018-12-16T10:06:58.817Z,64.97
2018-12-16T10:07:58.839Z,65.07
2018-12-16T10:08:58.802Z,64.34
2018-12-16T10:09:58.796Z,64.54
2018-12-16T10:10:58.784Z,64.34
2018-12-16T10:11:58.774Z,65.38
2018-12-16T10:12:58.767Z,64.54
2018-12-16T10:13:59.382Z,64.97
2018-12-16T10:14:58.727Z,64.76
2018-12-16T10:15:58.725Z,64.23
2018-12-16T10:16:58.784Z,64.13
2018-12-16T10:17:58.705Z,64.03
2018-12-16T10:18:58.690Z,65.28
2018-12-16T10:19:58.684Z,65.38
2018-12-16T10:20:58.697Z,64.44
2018-12-16T10:21:58.655Z,65.07
2018-12-16T10:22:58.672Z,64.86
2018-12-16T10:23:58.678Z,64.76
2018-12-16T10:24:58.632Z,63.18
2018-12-16T10:25:58.618Z,63.50
2018-12-16T10:26:58.652Z,64.76
2018-12-16T10:27:58.587Z,64.13
2018-12-16T10:28:58.576Z,64.34
2018-12-16T10:29:58.585Z,64.34
2018-12-16T10:30:58.563Z,64.44
2018-12-16T10:31:58.547Z,64.97
2018-12-16T10:32:58.541Z,64.03
2018-12-16T10:33:58.540Z,64.68
2018-12-16T10:34:58.512Z,65.49
2018-12-16T10:35:58.524Z,65.17
2018-12-16T10:36:58.500Z,64.23
2018-12-16T10:37:58.483Z,64.86
2018-12-16T10:38:58.467Z,65.07
2018-12-16T10:39:58.463Z,65.07
2018-12-16T10:40:58.472Z,65.07
2018-12-16T10:41:58.486Z,65.17
2018-12-16T10:42:58.436Z,65.46
2018-12-16T10:43:58.424Z,64.41
2018-12-16T10:44:58.403Z,64.44
2018-12-16T10:45:58.411Z,64.86
2018-12-16T10:46:58.395Z,65.38
2018-12-16T10:47:58.396Z,65.59
2018-12-16T10:49:04.526Z,65.31
2018-12-16T10:49:59.363Z,65.28
2018-12-16T10:50:58.339Z,65.17
2018-12-16T10:51:58.334Z,65.38
2018-12-16T10:52:58.339Z,65.07
2018-12-16T10:53:58.320Z,65.49
2018-12-16T10:54:58.835Z,64.97
2018-12-16T10:55:58.288Z,65.07
2018-12-16T10:56:58.326Z,65.28
2018-12-16T10:57:58.290Z,65.59
2018-12-16T10:58:58.279Z,66.01
2018-12-16T10:59:58.241Z,66.22
2018-12-16T11:00:58.247Z,65.70
2018-12-16T11:01:58.220Z,65.70
2018-12-16T11:02:58.886Z,64.65
2018-12-16T11:03:58.400Z,65.07
2018-12-16T11:04:58.882Z,64.44
2018-12-16T11:05:58.194Z,64.34
2018-12-16T11:06:58.177Z,64.03
2018-12-16T11:07:58.162Z,64.03
2018-12-16T11:08:58.163Z,64.23
2018-12-16T11:09:58.153Z,64.44
2018-12-16T11:10:58.127Z,64.44
2018-12-16T11:11:58.120Z,64.65
2018-12-16T11:12:58.102Z,64.65
2018-12-16T11:13:58.121Z,64.13
2018-12-16T11:14:58.095Z,64.13
2018-12-16T11:15:58.069Z,64.23
2018-12-16T11:16:58.088Z,64.13
2018-12-16T11:17:58.055Z,64.54
2018-12-16T11:18:58.038Z,64.13
2018-12-16T11:19:58.077Z,64.03
2018-12-16T11:20:58.023Z,63.40
2018-12-16T11:21:58.032Z,63.18
2018-12-16T11:22:57.996Z,63.40
2018-12-16T11:23:57.985Z,62.87
2018-12-16T11:24:57.986Z,63.50
2018-12-16T11:25:57.980Z,63.21
2018-12-16T11:26:57.952Z,62.77
2018-12-16T11:27:57.956Z,62.87
2018-12-16T11:28:57.945Z,62.56
2018-12-16T11:29:57.918Z,63.21
2018-12-16T11:30:57.929Z,63.29
2018-12-16T11:31:57.914Z,63.29
2018-12-16T11:32:57.898Z,63.50
2018-12-16T11:33:57.881Z,63.40
2018-12-16T11:34:57.886Z,62.98
2018-12-16T11:35:57.883Z,63.18
2018-12-16T11:36:57.844Z,62.43
2018-12-16T11:37:57.845Z,62.43
2018-12-16T11:38:57.825Z,62.74
2018-12-16T11:39:57.820Z,62.53
2018-12-16T11:40:57.846Z,61.49
2018-12-16T11:41:57.803Z,61.69
2018-12-16T11:42:57.795Z,61.49
2018-12-16T11:43:57.785Z,62.22
2018-12-16T11:44:57.768Z,62.53
2018-12-16T11:45:57.753Z,61.69
2018-12-16T11:46:57.984Z,62.45
2018-12-16T11:47:57.728Z,62.01
2018-12-16T11:48:57.738Z,62.01
2018-12-16T11:49:57.709Z,62.22
2018-12-16T11:50:57.706Z,62.22
2018-12-16T11:51:57.693Z,62.84
2018-12-16T11:52:57.684Z,61.66
2018-12-16T11:53:57.770Z,62.29
2018-12-16T11:54:57.666Z,61.90
2018-12-16T11:55:57.642Z,61.80
2018-12-16T11:56:57.652Z,62.53
2018-12-16T11:57:57.634Z,62.98
2018-12-16T11:58:57.633Z,62.84
2018-12-16T11:59:57.610Z,62.43
2018-12-16T12:00:57.619Z,63.06
2018-12-16T12:01:57.591Z,62.74
2018-12-16T12:02:57.569Z,63.06
2018-12-16T12:03:57.602Z,62.01
2018-12-16T12:04:57.553Z,62.08
2018-12-16T12:05:57.548Z,62.63
2018-12-16T12:06:57.525Z,61.49
2018-12-16T12:07:57.530Z,62.53
2018-12-16T12:08:57.559Z,61.59
2018-12-16T12:09:57.492Z,61.69
2018-12-16T12:10:57.496Z,62.11
2018-12-16T12:11:57.478Z,61.98
2018-12-16T12:12:57.465Z,61.88
2018-12-16T12:13:57.454Z,61.46
2018-12-16T12:14:57.450Z,62.19
2018-12-16T12:15:57.445Z,61.15
2018-12-16T12:16:57.424Z,61.15
2018-12-16T12:17:57.422Z,61.66
2018-12-16T12:18:57.395Z,61.35
2018-12-16T12:19:57.402Z,61.46
2018-12-16T12:20:57.390Z,61.56
2018-12-16T12:22:04.242Z,61.56
2018-12-16T12:22:58.384Z,61.35
2018-12-16T12:23:57.361Z,61.77
2018-12-16T12:24:57.345Z,61.77
2018-12-16T12:25:57.330Z,60.93
2018-12-16T12:26:57.316Z,62.29
2018-12-16T12:27:57.304Z,61.35
2018-12-16T12:28:57.291Z,61.35
2018-12-16T12:29:57.405Z,60.52
2018-12-16T12:30:57.282Z,61.59
2018-12-16T12:31:57.349Z,61.66
2018-12-16T12:32:57.262Z,62.22
2018-12-16T12:33:57.241Z,61.59
2018-12-16T12:34:57.259Z,61.80
2018-12-16T12:35:57.217Z,61.69
2018-12-16T12:36:57.214Z,61.59
2018-12-16T12:37:57.263Z,61.80
2018-12-16T12:38:57.854Z,61.38
2018-12-16T12:39:57.178Z,61.59
2018-12-16T12:40:57.181Z,61.51
2018-12-16T12:41:57.157Z,62.87
2018-12-16T12:42:57.141Z,62.74
2018-12-16T12:43:57.146Z,61.80
2018-12-16T12:44:57.127Z,61.20
2018-12-16T12:45:57.122Z,61.30
2018-12-16T12:46:57.167Z,61.20
2018-12-16T12:47:57.091Z,60.57
2018-12-16T12:48:57.083Z,61.41
2018-12-16T12:49:57.072Z,60.78
2018-12-16T12:50:57.052Z,61.20
2018-12-16T12:51:57.173Z,60.88